createdAt,value
2022-08-02T00:00:49.308Z,1008.58
2022-08-02T00:01:49.929Z,1008.58
2022-08-02T00:02:50.557Z,1008.58
2022-08-02T00:03:51.091Z,1008.58
2022-08-02T00:04:51.627Z,1008.59
2022-08-02T00:05:53.575Z,1008.60
2022-08-02T00:06:53.015Z,1008.60
2022-08-02T00:07:53.629Z,1008.60
2022-08-02T00:08:54.183Z,1008.60
2022-08-02T00:09:54.745Z,1008.60
2022-08-02T00:10:55.281Z,1008.60
2022-08-02T00:11:55.831Z,1008.61
2022-08-02T00:12:56.441Z,1008.62
2022-08-02T00:13:56.982Z,1008.64
2022-08-02T00:14:57.528Z,1008.66
2022-08-02T00:15:58.063Z,1008.68
2022-08-02T00:16:58.600Z,1008.69
2022-08-02T00:17:59.279Z,1008.70
2022-08-02T00:18:59.928Z,1008.71
2022-08-02T00:20:00.467Z,1008.74
2022-08-02T00:21:01.010Z,1008.74
2022-08-02T00:22:01.565Z,1008.73
2022-08-02T00:23:02.200Z,1008.72
2022-08-02T00:24:27.510Z,1008.73
2022-08-02T00:25:03.645Z,1008.73
2022-08-02T00:26:04.183Z,1008.73
2022-08-02T00:27:05.047Z,1008.74
2022-08-02T00:28:05.363Z,1008.75
2022-08-02T00:29:05.895Z,1008.75
2022-08-02T00:30:06.437Z,1008.74
2022-08-02T00:31:06.975Z,1008.76
2022-08-02T00:32:07.935Z,1008.76
2022-08-02T00:33:08.217Z,1008.78
2022-08-02T00:34:29.164Z,1008.80
2022-08-02T00:35:09.653Z,1008.80
2022-08-02T00:36:10.186Z,1008.81
2022-08-02T00:37:10.716Z,1008.82
2022-08-02T00:38:11.273Z,1008.82
2022-08-02T00:39:34.823Z,1008.82
2022-08-02T00:40:12.712Z,1008.82
2022-08-02T00:41:13.255Z,1008.82
2022-08-02T00:42:14.233Z,1008.82
2022-08-02T00:43:14.673Z,1008.84
2022-08-02T00:44:15.212Z,1008.83
2022-08-02T00:45:15.755Z,1008.82
2022-08-02T00:46:16.310Z,1008.82
2022-08-02T00:47:19.273Z,1008.83
2022-08-02T00:48:17.800Z,1008.83
2022-08-02T00:49:18.421Z,1008.84
2022-08-02T00:50:18.937Z,1008.85
2022-08-02T00:51:19.471Z,1008.85
2022-08-02T00:52:20.000Z,1008.85
2022-08-02T00:53:20.599Z,1008.86
2022-08-02T00:54:21.140Z,1008.86
2022-08-02T00:55:30.650Z,1008.85
2022-08-02T00:56:22.590Z,1008.82
2022-08-02T00:57:23.124Z,1008.81
2022-08-02T00:58:23.718Z,1008.80
2022-08-02T00:59:24.260Z,1008.79
2022-08-02T01:00:24.795Z,1008.78
2022-08-02T01:01:25.769Z,1008.78
2022-08-02T01:02:26.319Z,1008.79
2022-08-02T01:03:26.876Z,1008.80
2022-08-02T01:04:31.322Z,1008.81
2022-08-02T01:05:28.249Z,1008.83
2022-08-02T01:06:28.782Z,1008.84
2022-08-02T01:07:29.321Z,1008.83
2022-08-02T01:08:31.963Z,1008.85
2022-08-02T01:09:30.573Z,1008.85
2022-08-02T01:10:31.110Z,1008.85
2022-08-02T01:11:31.648Z,1008.85
2022-08-02T01:12:32.183Z,1008.85
2022-08-02T01:13:32.934Z,1008.83
2022-08-02T01:14:33.479Z,1008.83
2022-08-02T01:15:35.673Z,1008.82
2022-08-02T01:16:34.956Z,1008.81
2022-08-02T01:17:35.496Z,1008.80
2022-08-02T01:18:36.176Z,1008.79
2022-08-02T01:19:36.716Z,1008.76
2022-08-02T01:20:37.273Z,1008.75
2022-08-02T01:21:37.811Z,1008.74
2022-08-02T01:23:00.703Z,1008.74
2022-08-02T01:23:39.281Z,1008.74
2022-08-02T01:24:39.828Z,1008.75
2022-08-02T01:25:40.375Z,1008.77
2022-08-02T01:26:40.911Z,1008.77
2022-08-02T01:27:41.447Z,1008.78
2022-08-02T01:28:42.048Z,1008.77
2022-08-02T01:29:42.586Z,1008.78
2022-08-02T01:30:43.120Z,1008.77
2022-08-02T01:31:43.665Z,1008.77
2022-08-02T01:32:44.195Z,1008.77
2022-08-02T01:33:44.752Z,1008.78
2022-08-02T01:34:45.295Z,1008.79
2022-08-02T01:35:51.113Z,1008.81
2022-08-02T01:36:46.755Z,1008.82
2022-08-02T01:37:47.290Z,1008.82
2022-08-02T01:38:47.855Z,1008.82
2022-08-02T01:39:48.386Z,1008.83
2022-08-02T01:40:48.919Z,1008.84
2022-08-02T01:41:49.448Z,1008.83
2022-08-02T01:42:50.353Z,1008.83
2022-08-02T01:43:50.947Z,1008.83
2022-08-02T01:44:51.481Z,1008.83
2022-08-02T01:45:52.014Z,1008.84
2022-08-02T01:46:52.552Z,1008.85
2022-08-02T01:47:53.108Z,1008.86
2022-08-02T01:48:53.788Z,1008.86
2022-08-02T01:49:54.340Z,1008.87
2022-08-02T01:50:54.878Z,1008.86
2022-08-02T01:51:55.418Z,1008.85
2022-08-02T01:52:55.962Z,1008.85
2022-08-02T01:53:56.567Z,1008.84
2022-08-02T01:54:57.126Z,1008.84
2022-08-02T01:55:59.078Z,1008.84
2022-08-02T01:56:58.223Z,1008.83
2022-08-02T01:57:58.757Z,1008.84
2022-08-02T01:58:59.319Z,1008.83
2022-08-02T01:59:59.867Z,1008.84
2022-08-02T02:01:00.831Z,1008.83
2022-08-02T02:02:01.423Z,1008.82
2022-08-02T02:03:01.969Z,1008.81
2022-08-02T02:04:02.854Z,1008.80
2022-08-02T02:05:03.387Z,1008.79
2022-08-02T02:06:03.917Z,1008.78
2022-08-02T02:07:04.464Z,1008.79
2022-08-02T02:08:04.999Z,1008.78
2022-08-02T02:09:05.563Z,1008.78
2022-08-02T02:10:06.090Z,1008.78
2022-08-02T02:12:11.941Z,1008.77
2022-08-02T02:12:14.851Z,1008.77
2022-08-02T02:13:08.430Z,1008.76
2022-08-02T02:14:09.101Z,1008.77
2022-08-02T02:15:09.633Z,1008.77
2022-08-02T02:16:10.173Z,1008.75
2022-08-02T02:18:11.579Z,1008.74
2022-08-02T02:18:13.720Z,1008.73
2022-08-02T02:19:12.680Z,1008.72
2022-08-02T02:20:13.511Z,1008.72
2022-08-02T02:21:14.059Z,1008.72
2022-08-02T02:22:14.605Z,1008.72
2022-08-02T02:23:15.142Z,1008.72
2022-08-02T02:24:15.721Z,1008.73
2022-08-02T02:25:16.364Z,1008.74
2022-08-02T02:26:17.548Z,1008.75
2022-08-02T02:27:17.798Z,1008.76
2022-08-02T02:28:18.330Z,1008.77
2022-08-02T02:29:18.905Z,1008.77
2022-08-02T02:30:19.452Z,1008.77
2022-08-02T02:31:19.989Z,1008.78
2022-08-02T02:32:20.529Z,1008.78
2022-08-02T02:33:21.079Z,1008.78
2022-08-02T02:34:21.649Z,1008.78
2022-08-02T02:35:22.188Z,1008.78
2022-08-02T02:36:22.726Z,1008.77
2022-08-02T02:37:23.268Z,1008.77
2022-08-02T02:38:23.798Z,1008.78
2022-08-02T02:39:24.356Z,1008.77
2022-08-02T02:40:24.905Z,1008.77
2022-08-02T02:41:25.444Z,1008.76
2022-08-02T02:42:25.987Z,1008.76
2022-08-02T02:43:26.526Z,1008.76
2022-08-02T02:44:27.126Z,1008.78
2022-08-02T02:45:27.671Z,1008.81
2022-08-02T02:46:28.213Z,1008.83
2022-08-02T02:47:40.482Z,1008.85
2022-08-02T02:48:29.648Z,1008.85
2022-08-02T02:49:30.343Z,1008.84
2022-08-02T02:50:30.908Z,1008.84
2022-08-02T02:51:31.439Z,1008.85
2022-08-02T02:52:31.980Z,1008.86
2022-08-02T02:54:30.519Z,1008.87
2022-08-02T02:54:35.322Z,1008.89
2022-08-02T02:55:34.170Z,1008.90
2022-08-02T02:56:34.711Z,1008.91
2022-08-02T02:57:35.248Z,1008.92
2022-08-02T02:58:35.792Z,1008.92
2022-08-02T02:59:42.949Z,1008.93
2022-08-02T03:00:37.064Z,1008.92
2022-08-02T03:01:56.836Z,1008.92
2022-08-02T03:02:38.521Z,1008.92
2022-08-02T03:03:39.057Z,1008.93
2022-08-02T03:04:56.721Z,1008.93
2022-08-02T03:05:40.524Z,1008.93
2022-08-02T03:06:41.086Z,1008.94
2022-08-02T03:07:41.629Z,1008.94
2022-08-02T03:08:42.171Z,1008.94
2022-08-02T03:09:42.903Z,1008.94
2022-08-02T03:10:43.439Z,1008.93
2022-08-02T03:11:43.988Z,1008.94
2022-08-02T03:12:44.528Z,1008.94
2022-08-02T03:13:45.071Z,1008.95
2022-08-02T03:14:45.675Z,1008.96
2022-08-02T03:15:46.514Z,1008.97
2022-08-02T03:16:47.043Z,1009.00
2022-08-02T03:17:47.576Z,1009.02
2022-08-02T03:18:48.121Z,1009.03
2022-08-02T03:19:48.792Z,1009.05
2022-08-02T03:20:49.325Z,1009.07
2022-08-02T03:21:57.316Z,1009.08
2022-08-02T03:22:50.767Z,1009.07
2022-08-02T03:23:51.307Z,1009.06
2022-08-02T03:24:51.873Z,1009.06
2022-08-02T03:25:52.410Z,1009.07
2022-08-02T03:26:52.964Z,1009.08
2022-08-02T03:27:53.501Z,1009.09
2022-08-02T03:28:54.040Z,1009.11
2022-08-02T03:29:54.639Z,1009.12
2022-08-02T03:30:55.169Z,1009.13
2022-08-02T03:31:55.707Z,1009.13
2022-08-02T03:32:56.239Z,1009.14
2022-08-02T03:33:56.770Z,1009.15
2022-08-02T03:34:57.333Z,1009.16
2022-08-02T03:35:57.870Z,1009.17
2022-08-02T03:36:58.410Z,1009.19
2022-08-02T03:37:58.953Z,1009.20
2022-08-02T03:38:59.518Z,1009.21
2022-08-02T03:40:00.178Z,1009.22
2022-08-02T03:41:00.748Z,1009.21
2022-08-02T03:42:01.288Z,1009.21
2022-08-02T03:43:01.963Z,1009.21
2022-08-02T03:44:02.496Z,1009.22
2022-08-02T03:45:08.430Z,1009.22
2022-08-02T03:46:03.990Z,1009.22
2022-08-02T03:47:04.533Z,1009.23
2022-08-02T03:48:30.423Z,1009.24
2022-08-02T03:49:06.050Z,1009.26
2022-08-02T03:50:06.712Z,1009.28
2022-08-02T03:51:07.255Z,1009.30
2022-08-02T03:52:07.987Z,1009.31
2022-08-02T03:53:08.637Z,1009.31
2022-08-02T03:54:09.543Z,1009.32
2022-08-02T03:55:10.158Z,1009.33
2022-08-02T03:56:10.692Z,1009.33
2022-08-02T03:57:11.232Z,1009.32
2022-08-02T03:58:11.775Z,1009.31
2022-08-02T03:59:12.315Z,1009.31
2022-08-02T04:00:12.873Z,1009.30
2022-08-02T04:01:13.457Z,1009.31
2022-08-02T04:02:14.346Z,1009.32
2022-08-02T04:03:19.741Z,1009.33
2022-08-02T04:04:15.471Z,1009.35
2022-08-02T04:05:16.039Z,1009.35
2022-08-02T04:06:16.584Z,1009.34
2022-08-02T04:08:02.606Z,1009.34
2022-08-02T04:08:35.244Z,1009.33
2022-08-02T04:09:18.904Z,1009.33
2022-08-02T04:10:19.457Z,1009.35
2022-08-02T04:11:20.004Z,1009.35
2022-08-02T04:12:20.543Z,1009.35
2022-08-02T04:13:21.094Z,1009.36
2022-08-02T04:14:22.004Z,1009.37
2022-08-02T04:15:22.569Z,1009.38
2022-08-02T04:16:23.102Z,1009.38
2022-08-02T04:17:23.633Z,1009.38
2022-08-02T04:18:24.181Z,1009.37
2022-08-02T04:19:24.713Z,1009.36
2022-08-02T04:20:25.381Z,1009.35
2022-08-02T04:21:25.922Z,1009.36
2022-08-02T04:22:26.459Z,1009.37
2022-08-02T04:23:26.996Z,1009.37
2022-08-02T04:24:27.545Z,1009.37
2022-08-02T04:25:35.696Z,1009.38
2022-08-02T04:26:29.014Z,1009.38
2022-08-02T04:28:15.178Z,1009.38
2022-08-02T04:28:30.579Z,1009.39
2022-08-02T04:29:31.120Z,1009.40
2022-08-02T04:30:31.724Z,1009.40
2022-08-02T04:31:32.291Z,1009.40
2022-08-02T04:32:32.823Z,1009.41
2022-08-02T04:33:33.357Z,1009.41
2022-08-02T04:34:33.894Z,1009.42
2022-08-02T04:35:34.451Z,1009.42
2022-08-02T04:36:34.998Z,1009.43
2022-08-02T04:37:35.543Z,1009.43
2022-08-02T04:38:36.075Z,1009.43
2022-08-02T04:39:36.607Z,1009.43
2022-08-02T04:40:37.171Z,1009.42
2022-08-02T04:41:41.067Z,1009.42
2022-08-02T04:42:38.619Z,1009.41
2022-08-02T04:43:39.167Z,1009.41
2022-08-02T04:44:39.707Z,1009.42
2022-08-02T04:45:40.269Z,1009.43
2022-08-02T04:46:40.811Z,1009.43
2022-08-02T04:48:01.962Z,1009.43
2022-08-02T04:48:42.261Z,1009.43
2022-08-02T04:49:42.927Z,1009.43
2022-08-02T04:50:43.668Z,1009.44
2022-08-02T04:51:44.206Z,1009.44
2022-08-02T04:52:45.973Z,1009.44
2022-08-02T04:53:45.624Z,1009.45
2022-08-02T04:54:46.162Z,1009.46
2022-08-02T04:55:46.775Z,1009.47
2022-08-02T04:56:47.303Z,1009.46
2022-08-02T04:57:52.482Z,1009.46
2022-08-02T04:58:48.735Z,1009.46
2022-08-02T04:59:52.867Z,1009.47
2022-08-02T05:00:50.279Z,1009.49
2022-08-02T05:01:50.859Z,1009.51
2022-08-02T05:02:51.405Z,1009.52
2022-08-02T05:03:51.941Z,1009.53
2022-08-02T05:04:52.484Z,1009.54
2022-08-02T05:05:53.058Z,1009.53
2022-08-02T05:06:53.596Z,1009.53
2022-08-02T05:07:54.134Z,1009.54
2022-08-02T05:08:54.670Z,1009.54
2022-08-02T05:09:55.211Z,1009.54
2022-08-02T05:10:55.770Z,1009.55
2022-08-02T05:11:56.311Z,1009.55
2022-08-02T05:12:56.849Z,1009.56
2022-08-02T05:13:59.313Z,1009.56
2022-08-02T05:14:58.086Z,1009.56
2022-08-02T05:15:58.656Z,1009.56
2022-08-02T05:16:59.213Z,1009.57
2022-08-02T05:17:59.748Z,1009.56
2022-08-02T05:19:00.379Z,1009.56
2022-08-02T05:20:01.043Z,1009.56
2022-08-02T05:21:01.733Z,1009.57
2022-08-02T05:22:02.266Z,1009.57
2022-08-02T05:23:02.801Z,1009.57
2022-08-02T05:24:03.336Z,1009.57
2022-08-02T05:25:03.881Z,1009.56
2022-08-02T05:26:04.462Z,1009.55
2022-08-02T05:27:17.036Z,1009.55
2022-08-02T05:28:11.030Z,1009.55
2022-08-02T05:29:06.821Z,1009.54
2022-08-02T05:30:07.362Z,1009.54
2022-08-02T05:31:13.382Z,1009.56
2022-08-02T05:32:09.236Z,1009.57
2022-08-02T05:33:09.548Z,1009.58
2022-08-02T05:34:12.156Z,1009.60
2022-08-02T05:35:10.848Z,1009.60
2022-08-02T05:36:11.431Z,1009.61
2022-08-02T05:37:11.972Z,1009.62
2022-08-02T05:38:12.774Z,1009.63
2022-08-02T05:39:18.715Z,1009.64
2022-08-02T05:40:14.227Z,1009.65
2022-08-02T05:41:15.121Z,1009.65
2022-08-02T05:42:15.656Z,1009.65
2022-08-02T05:43:16.204Z,1009.64
2022-08-02T05:44:16.734Z,1009.65
2022-08-02T05:45:17.287Z,1009.66
2022-08-02T05:46:17.848Z,1009.67
2022-08-02T05:47:18.391Z,1009.67
2022-08-02T05:48:18.937Z,1009.68
2022-08-02T05:49:19.573Z,1009.68
2022-08-02T05:50:20.151Z,1009.69
2022-08-02T05:51:20.784Z,1009.70
2022-08-02T05:52:21.320Z,1009.71
2022-08-02T05:53:21.867Z,1009.71
2022-08-02T05:54:22.405Z,1009.72
2022-08-02T05:55:22.939Z,1009.73
2022-08-02T05:56:24.078Z,1009.74
2022-08-02T05:57:24.290Z,1009.76
2022-08-02T05:58:24.820Z,1009.77
2022-08-02T05:59:25.362Z,1009.78
2022-08-02T06:00:25.898Z,1009.78
2022-08-02T06:01:26.490Z,1009.79
2022-08-02T06:02:30.322Z,1009.81
2022-08-02T06:03:27.711Z,1009.82
2022-08-02T06:04:28.303Z,1009.82
2022-08-02T06:05:28.830Z,1009.82
2022-08-02T06:06:29.400Z,1009.80
2022-08-02T06:07:29.937Z,1009.79
2022-08-02T06:08:30.472Z,1009.79
2022-08-02T06:09:31.009Z,1009.79
2022-08-02T06:10:31.546Z,1009.79
2022-08-02T06:11:32.096Z,1009.80
2022-08-02T06:12:32.628Z,1009.79
2022-08-02T06:13:33.168Z,1009.79
2022-08-02T06:14:33.711Z,1009.78
2022-08-02T06:15:34.248Z,1009.78
2022-08-02T06:16:42.122Z,1009.77
2022-08-02T06:17:41.679Z,1009.77
2022-08-02T06:18:36.989Z,1009.78
2022-08-02T06:19:52.160Z,1009.77
2022-08-02T06:20:38.440Z,1009.77
2022-08-02T06:22:33.375Z,1009.78
2022-08-02T06:22:40.039Z,1009.80
2022-08-02T06:23:40.616Z,1009.78
2022-08-02T06:24:41.519Z,1009.77
2022-08-02T06:25:50.060Z,1009.78
2022-08-02T06:26:42.982Z,1009.76
2022-08-02T06:27:43.529Z,1009.78
2022-08-02T06:28:44.063Z,1009.76
2022-08-02T06:29:44.592Z,1009.78
2022-08-02T06:30:45.127Z,1009.78
2022-08-02T06:31:45.732Z,1009.79
2022-08-02T06:32:46.287Z,1009.79
2022-08-02T06:33:46.822Z,1009.79
2022-08-02T06:34:47.365Z,1009.81
2022-08-02T06:35:47.902Z,1009.81
2022-08-02T06:36:48.468Z,1009.82
2022-08-02T06:37:49.021Z,1009.82
2022-08-02T06:38:49.771Z,1009.82
2022-08-02T06:39:50.243Z,1009.81
2022-08-02T06:40:50.797Z,1009.81
2022-08-02T06:41:51.381Z,1009.81
2022-08-02T06:42:51.919Z,1009.80
2022-08-02T06:43:52.460Z,1009.81
2022-08-02T06:44:57.031Z,1009.80
2022-08-02T06:45:53.908Z,1009.80
2022-08-02T06:47:10.424Z,1009.81
2022-08-02T06:47:55.370Z,1009.82
2022-08-02T06:48:56.003Z,1009.82
2022-08-02T06:49:56.728Z,1009.85
2022-08-02T06:50:57.286Z,1009.84
2022-08-02T06:51:57.909Z,1009.84
2022-08-02T06:52:58.476Z,1009.84
2022-08-02T06:53:59.012Z,1009.84
2022-08-02T06:54:59.582Z,1009.85
2022-08-02T06:56:00.143Z,1009.86
2022-08-02T06:57:00.749Z,1009.87
2022-08-02T06:58:01.284Z,1009.88
2022-08-02T06:59:05.666Z,1009.88
2022-08-02T07:00:02.676Z,1009.88
2022-08-02T07:01:03.386Z,1009.90
2022-08-02T07:02:04.130Z,1009.91
2022-08-02T07:03:04.728Z,1009.92
2022-08-02T07:04:05.259Z,1009.91
2022-08-02T07:05:05.802Z,1009.91
2022-08-02T07:06:06.338Z,1009.92
2022-08-02T07:07:07.001Z,1009.91
2022-08-02T07:08:07.539Z,1009.92
2022-08-02T07:09:22.033Z,1009.93
2022-08-02T07:10:08.970Z,1009.93
2022-08-02T07:11:09.463Z,1009.93
2022-08-02T07:12:10.315Z,1009.92
2022-08-02T07:13:10.468Z,1009.92
2022-08-02T07:14:11.447Z,1009.91
2022-08-02T07:15:12.433Z,1009.91
2022-08-02T07:16:12.925Z,1009.90
2022-08-02T07:17:13.942Z,1009.92
2022-08-02T07:18:14.431Z,1009.94
2022-08-02T07:19:15.417Z,1009.97
2022-08-02T07:20:16.398Z,1009.98
2022-08-02T07:21:17.385Z,1009.98
2022-08-02T07:22:18.303Z,1009.99
2022-08-02T07:23:18.783Z,1009.99
2022-08-02T07:24:19.781Z,1009.99
2022-08-02T07:25:20.264Z,1009.99
2022-08-02T07:26:21.255Z,1009.99
2022-08-02T07:27:22.260Z,1010.01
2022-08-02T07:28:24.709Z,1010.01
2022-08-02T07:29:23.400Z,1010.02
2022-08-02T07:30:24.383Z,1010.03
2022-08-02T07:31:25.371Z,1010.03
2022-08-02T07:32:26.396Z,1010.02
2022-08-02T07:33:37.958Z,1010.00
2022-08-02T07:34:27.725Z,1010.00
2022-08-02T07:35:28.732Z,1010.01
2022-08-02T07:36:29.239Z,1010.02
2022-08-02T07:37:53.359Z,1010.04
2022-08-02T07:38:31.091Z,1010.05
2022-08-02T07:39:31.801Z,1010.06
2022-08-02T07:40:32.375Z,1010.07
2022-08-02T07:41:33.364Z,1010.09
2022-08-02T07:42:34.374Z,1010.09
2022-08-02T07:43:34.864Z,1010.11
2022-08-02T07:44:35.850Z,1010.11
2022-08-02T07:45:45.615Z,1010.12
2022-08-02T07:46:37.688Z,1010.11
2022-08-02T07:47:38.749Z,1010.11
2022-08-02T07:48:39.253Z,1010.11
2022-08-02T07:49:40.306Z,1010.10
2022-08-02T07:50:40.795Z,1010.09
2022-08-02T07:51:41.781Z,1010.07
2022-08-02T07:52:42.743Z,1010.08
2022-08-02T07:53:50.602Z,1010.08
2022-08-02T07:54:44.084Z,1010.08
2022-08-02T07:55:45.064Z,1010.07
2022-08-02T07:56:46.051Z,1010.08
2022-08-02T07:57:47.288Z,1010.07
2022-08-02T07:58:47.847Z,1010.08
2022-08-02T07:59:48.833Z,1010.08
2022-08-02T08:00:49.817Z,1010.09
2022-08-02T08:01:50.856Z,1010.10
2022-08-02T08:02:52.661Z,1010.11
2022-08-02T08:03:52.120Z,1010.13
2022-08-02T08:04:53.104Z,1010.13
2022-08-02T08:05:54.082Z,1010.14
2022-08-02T08:06:55.078Z,1010.12
2022-08-02T08:07:55.654Z,1010.12
2022-08-02T08:08:56.143Z,1010.11
2022-08-02T08:09:57.131Z,1010.11
2022-08-02T08:10:58.111Z,1010.12
2022-08-02T08:11:59.097Z,1010.12
2022-08-02T08:12:59.610Z,1010.11
2022-08-02T08:14:00.091Z,1010.11
2022-08-02T08:15:01.077Z,1010.13
2022-08-02T08:16:02.068Z,1010.13
2022-08-02T08:17:03.051Z,1010.14
2022-08-02T08:18:04.066Z,1010.14
2022-08-02T08:19:04.791Z,1010.15
2022-08-02T08:20:05.770Z,1010.17
2022-08-02T08:21:06.757Z,1010.17
2022-08-02T08:22:07.747Z,1010.17
2022-08-02T08:23:08.368Z,1010.17
2022-08-02T08:24:08.857Z,1010.16
2022-08-02T08:25:09.888Z,1010.16
2022-08-02T08:26:15.320Z,1010.17
2022-08-02T08:27:11.214Z,1010.17
2022-08-02T08:28:12.234Z,1010.18
2022-08-02T08:29:12.718Z,1010.16
2022-08-02T08:30:13.704Z,1010.16
2022-08-02T08:31:14.691Z,1010.17
2022-08-02T08:32:17.743Z,1010.16
2022-08-02T08:33:16.428Z,1010.17
2022-08-02T08:34:16.908Z,1010.17
2022-08-02T08:35:17.897Z,1010.19
2022-08-02T08:36:18.879Z,1010.19
2022-08-02T08:37:19.863Z,1010.19
2022-08-02T08:38:20.870Z,1010.18
2022-08-02T08:39:21.352Z,1010.20
2022-08-02T08:40:22.381Z,1010.19
2022-08-02T08:41:22.891Z,1010.18
2022-08-02T08:42:23.876Z,1010.16
2022-08-02T08:43:24.894Z,1010.13
2022-08-02T08:44:25.381Z,1010.13
2022-08-02T08:45:26.369Z,1010.12
2022-08-02T08:46:27.363Z,1010.13
2022-08-02T08:47:27.853Z,1010.14
2022-08-02T08:48:30.884Z,1010.15
2022-08-02T08:49:29.517Z,1010.13
2022-08-02T08:50:30.026Z,1010.12
2022-08-02T08:51:31.018Z,1010.13
2022-08-02T08:52:31.970Z,1010.12
2022-08-02T08:53:36.347Z,1010.13
2022-08-02T08:54:33.079Z,1010.13
2022-08-02T08:55:33.621Z,1010.14
2022-08-02T08:56:34.159Z,1010.11
2022-08-02T08:57:34.699Z,1010.11
2022-08-02T08:58:35.404Z,1010.11
2022-08-02T08:59:39.270Z,1010.12
2022-08-02T09:00:36.516Z,1010.11
2022-08-02T09:01:50.570Z,1010.11
2022-08-02T09:02:37.978Z,1010.10
2022-08-02T09:03:38.546Z,1010.09
2022-08-02T09:04:39.084Z,1010.07
2022-08-02T09:05:39.627Z,1010.07
2022-08-02T09:06:40.176Z,1010.05
2022-08-02T09:07:40.716Z,1010.05
2022-08-02T09:08:41.280Z,1010.05
2022-08-02T09:09:41.823Z,1010.06
2022-08-02T09:10:42.354Z,1010.06
2022-08-02T09:11:42.889Z,1010.06
2022-08-02T09:12:43.441Z,1010.06
2022-08-02T09:13:45.747Z,1010.06
2022-08-02T09:14:44.775Z,1010.07
2022-08-02T09:15:45.314Z,1010.07
2022-08-02T09:16:45.852Z,1010.09
2022-08-02T09:17:46.387Z,1010.10
2022-08-02T09:18:47.704Z,1010.10
2022-08-02T09:19:47.813Z,1010.11
2022-08-02T09:20:48.339Z,1010.11
2022-08-02T09:21:48.874Z,1010.12
2022-08-02T09:22:49.401Z,1010.11
2022-08-02T09:23:50.100Z,1010.10
2022-08-02T09:24:50.648Z,1010.08
2022-08-02T09:25:54.678Z,1010.09
2022-08-02T09:26:52.080Z,1010.09
2022-08-02T09:27:52.622Z,1010.09
2022-08-02T09:28:53.180Z,1010.11
2022-08-02T09:30:12.401Z,1010.10
2022-08-02T09:30:54.626Z,1010.11
2022-08-02T09:31:55.160Z,1010.10
2022-08-02T09:32:55.699Z,1010.11
2022-08-02T09:33:56.262Z,1010.10
2022-08-02T09:34:56.804Z,1010.11
2022-08-02T09:36:05.391Z,1010.11
2022-08-02T09:36:58.238Z,1010.10
2022-08-02T09:37:58.980Z,1010.09
2022-08-02T09:38:59.537Z,1010.09
2022-08-02T09:40:00.130Z,1010.10
2022-08-02T09:41:00.685Z,1010.11
2022-08-02T09:42:01.218Z,1010.11
2022-08-02T09:43:01.752Z,1010.10
2022-08-02T09:44:04.416Z,1010.10
2022-08-02T09:45:03.216Z,1010.10
2022-08-02T09:46:03.761Z,1010.11
2022-08-02T09:47:04.300Z,1010.09
2022-08-02T09:48:04.836Z,1010.08
2022-08-02T09:49:05.518Z,1010.07
2022-08-02T09:50:06.141Z,1010.06
2022-08-02T09:51:06.669Z,1010.05
2022-08-02T09:52:07.206Z,1010.04
2022-08-02T09:53:07.750Z,1010.05
2022-08-02T09:54:09.223Z,1010.05
2022-08-02T09:55:09.008Z,1010.05
2022-08-02T09:56:35.060Z,1010.05
2022-08-02T09:57:10.461Z,1010.06
2022-08-02T09:58:10.998Z,1010.06
2022-08-02T09:59:11.604Z,1010.06
2022-08-02T10:00:14.233Z,1010.07
2022-08-02T10:01:13.123Z,1010.05
2022-08-02T10:02:17.691Z,1010.06
2022-08-02T10:03:22.214Z,1010.05
2022-08-02T10:04:21.292Z,1010.05
2022-08-02T10:05:16.668Z,1010.07
2022-08-02T10:06:17.489Z,1010.06
2022-08-02T10:07:18.023Z,1010.07
2022-08-02T10:08:18.584Z,1010.09
2022-08-02T10:09:19.150Z,1010.09
2022-08-02T10:10:19.686Z,1010.09
2022-08-02T10:11:20.225Z,1010.09
2022-08-02T10:12:20.760Z,1010.08
2022-08-02T10:13:21.893Z,1010.08
2022-08-02T10:14:22.281Z,1010.09
2022-08-02T10:15:27.245Z,1010.09
2022-08-02T10:16:23.551Z,1010.08
2022-08-02T10:17:24.085Z,1010.09
2022-08-02T10:18:38.137Z,1010.10
2022-08-02T10:20:00.418Z,1010.10
2022-08-02T10:20:26.444Z,1010.11
2022-08-02T10:21:26.976Z,1010.11
2022-08-02T10:22:27.529Z,1010.12
2022-08-02T10:23:28.080Z,1010.10
2022-08-02T10:24:29.133Z,1010.10
2022-08-02T10:25:29.669Z,1010.09
2022-08-02T10:26:30.205Z,1010.09
2022-08-02T10:27:43.170Z,1010.09
2022-08-02T10:28:31.653Z,1010.08
2022-08-02T10:29:43.955Z,1010.07
2022-08-02T10:30:33.109Z,1010.07
2022-08-02T10:31:33.652Z,1010.08
2022-08-02T10:32:34.186Z,1010.10
2022-08-02T10:33:34.718Z,1010.11
2022-08-02T10:34:35.293Z,1010.13
2022-08-02T10:35:35.866Z,1010.13
2022-08-02T10:36:36.411Z,1010.13
2022-08-02T10:37:36.947Z,1010.14
2022-08-02T10:38:37.482Z,1010.14
2022-08-02T10:39:38.052Z,1010.14
2022-08-02T10:40:38.589Z,1010.15
2022-08-02T10:41:39.497Z,1010.13
2022-08-02T10:42:40.205Z,1010.13
2022-08-02T10:43:40.745Z,1010.10
2022-08-02T10:44:41.313Z,1010.08
2022-08-02T10:45:41.845Z,1010.08
2022-08-02T10:46:42.377Z,1010.08
2022-08-02T10:47:43.161Z,1010.06
2022-08-02T10:48:43.699Z,1010.04
2022-08-02T10:49:44.348Z,1010.03
2022-08-02T10:50:44.922Z,1010.02
2022-08-02T10:51:45.450Z,1010.02
2022-08-02T10:52:45.985Z,1010.01
2022-08-02T10:53:46.902Z,1010.00
2022-08-02T10:54:47.529Z,1009.98
2022-08-02T10:55:48.066Z,1009.98
2022-08-02T10:56:48.611Z,1009.97
2022-08-02T10:57:49.925Z,1009.97
2022-08-02T10:58:49.728Z,1009.97
2022-08-02T10:59:50.344Z,1009.96
2022-08-02T11:00:50.977Z,1009.97
2022-08-02T11:01:51.559Z,1009.96
2022-08-02T11:02:52.915Z,1009.96
2022-08-02T11:03:52.657Z,1009.95
2022-08-02T11:04:53.287Z,1009.94
2022-08-02T11:05:53.824Z,1009.93
2022-08-02T11:06:54.360Z,1009.92
2022-08-02T11:07:54.893Z,1009.90
2022-08-02T11:08:55.431Z,1009.89
2022-08-02T11:09:56.003Z,1009.88
2022-08-02T11:10:56.551Z,1009.88
2022-08-02T11:11:57.087Z,1009.88
2022-08-02T11:12:57.638Z,1009.88
2022-08-02T11:13:58.186Z,1009.87
2022-08-02T11:14:58.749Z,1009.86
2022-08-02T11:15:59.297Z,1009.84
2022-08-02T11:16:59.844Z,1009.83
2022-08-02T11:18:00.406Z,1009.82
2022-08-02T11:19:00.947Z,1009.80
2022-08-02T11:20:01.505Z,1009.80
2022-08-02T11:21:02.039Z,1009.80
2022-08-02T11:22:02.573Z,1009.79
2022-08-02T11:23:03.113Z,1009.79
2022-08-02T11:24:03.653Z,1009.79
2022-08-02T11:25:04.295Z,1009.77
2022-08-02T11:26:11.295Z,1009.76
2022-08-02T11:27:05.730Z,1009.74
2022-08-02T11:28:06.264Z,1009.72
2022-08-02T11:29:06.794Z,1009.71
2022-08-02T11:30:07.414Z,1009.71
2022-08-02T11:31:07.949Z,1009.70
2022-08-02T11:32:08.494Z,1009.70
2022-08-02T11:33:09.026Z,1009.69
2022-08-02T11:34:10.084Z,1009.69
2022-08-02T11:35:10.229Z,1009.69
2022-08-02T11:36:10.765Z,1009.69
2022-08-02T11:37:11.307Z,1009.69
2022-08-02T11:38:11.850Z,1009.67
2022-08-02T11:39:12.390Z,1009.67
2022-08-02T11:40:19.751Z,1009.65
2022-08-02T11:41:14.296Z,1009.64
2022-08-02T11:42:15.552Z,1009.63
2022-08-02T11:43:15.777Z,1009.63
2022-08-02T11:44:16.315Z,1009.62
2022-08-02T11:45:21.027Z,1009.62
2022-08-02T11:46:17.780Z,1009.62
2022-08-02T11:47:18.324Z,1009.61
2022-08-02T11:48:18.826Z,1009.61
2022-08-02T11:49:19.853Z,1009.61
2022-08-02T11:50:20.431Z,1009.60
2022-08-02T11:51:21.248Z,1009.59
2022-08-02T11:52:22.236Z,1009.60
2022-08-02T11:53:23.225Z,1009.60
2022-08-02T11:54:23.718Z,1009.62
2022-08-02T11:55:24.343Z,1009.62
2022-08-02T11:56:25.418Z,1009.62
2022-08-02T11:57:25.506Z,1009.61
2022-08-02T11:58:26.488Z,1009.62
2022-08-02T11:59:27.485Z,1009.61
2022-08-02T12:00:30.546Z,1009.61
2022-08-02T12:01:28.474Z,1009.60
2022-08-02T12:02:29.469Z,1009.59
2022-08-02T12:03:30.029Z,1009.59
2022-08-02T12:04:30.565Z,1009.58
2022-08-02T12:06:02.739Z,1009.58
2022-08-02T12:06:32.209Z,1009.57
2022-08-02T12:07:34.601Z,1009.59
2022-08-02T12:08:33.940Z,1009.61
2022-08-02T12:09:39.240Z,1009.62
2022-08-02T12:10:35.520Z,1009.63
2022-08-02T12:11:39.027Z,1009.63
2022-08-02T12:12:36.793Z,1009.63
2022-08-02T12:13:37.770Z,1009.65